Time;durP1;ratioP1;P1;durP2;ratioP2;P2;SDS_P1;SDS_P2;PMS_P1;PMS_P2;Temp;Humidity;BMP_temperature;BMP_pressure;BME280_temperature;BME280_humidity;BME280_pressure;Samples;Min_cycle;Max_cycle;Signal;HPM_P1;HPM_P2
2022/03/28 00:01:53;;;;;;;30.30;7.18;;;5.50;99.90;;;;;;4945972;28;20046;-89
2022/03/28 00:04:19;;;;;;;77.35;8.35;;;5.50;99.90;;;;;;4931462;28;20041;-90
2022/03/28 00:06:46;;;;;;;65.68;7.95;;;5.50;99.90;;;;;;4942654;28;20046;-88
2022/03/28 00:09:33;;;;;;;81.68;10.10;;;5.60;99.90;;;;;;4942083;28;20038;-89
2022/03/28 00:12:00;;;;;;;77.65;10.38;;;5.60;99.90;;;;;;4961293;28;20573;-89
2022/03/28 00:14:28;;;;;;;33.72;9.15;;;5.60;99.90;;;;;;4947405;28;20053;-89
2022/03/28 00:16:57;;;;;;;115.65;12.18;;;5.60;99.90;;;;;;4942126;28;20041;-89
2022/03/28 00:19:29;;;;;;;67.88;12.05;;;5.60;99.90;;;;;;4949213;28;20054;-89
2022/03/28 00:21:56;;;;;;;101.00;12.35;;;5.60;99.90;;;;;;4943130;28;20440;-88
2022/03/28 00:24:33;;;;;;;92.15;12.32;;;5.70;99.90;;;;;;4946688;28;20058;-88
2022/03/28 00:26:59;;;;;;;76.35;11.95;;;5.70;99.90;;;;;;4937842;28;20047;-89
2022/03/28 00:29:58;;;;;;;154.73;15.23;;;5.70;99.90;;;;;;4932936;28;20133;-89
2022/03/28 00:32:27;;;;;;;94.68;13.07;;;5.70;99.90;;;;;;4953642;28;20057;-90
2022/03/28 00:34:53;;;;;;;137.95;14.13;;;5.70;99.90;;;;;;4945086;28;20046;-90
2022/03/28 00:37:19;;;;;;;108.45;15.88;;;5.70;99.90;;;;;;4956413;28;20042;-89
2022/03/28 00:39:47;;;;;;;84.00;16.48;;;5.70;99.90;;;;;;4937289;28;20038;-89
2022/03/28 00:42:20;;;;;;;88.25;16.17;;;5.70;99.90;;;;;;4934951;28;20117;-91
2022/03/28 00:45:25;;;;;;;100.78;17.42;;;5.70;99.90;;;;;;4930074;28;20034;-88
2022/03/28 00:48:34;;;;;;;134.93;17.75;;;5.70;99.90;;;;;;4941559;28;20105;-89
2022/03/28 00:51:03;;;;;;;60.05;15.35;;;5.70;99.90;;;;;;4939200;28;20112;-88
2022/03/28 00:53:39;;;;;;;82.10;16.08;;;5.70;99.90;;;;;;4953267;28;20042;-90
2022/03/28 00:56:08;;;;;;;156.15;18.30;;;5.70;99.90;;;;;;4947960;28;20035;-89
2022/03/28 00:58:38;;;;;;;73.55;16.75;;;5.70;99.90;;;;;;4949111;28;20039;-88
2022/03/28 01:01:13;;;;;;;212.40;23.05;;;5.70;99.90;;;;;;4943215;28;20046;-89
2022/03/28 01:03:39;;;;;;;108.50;19.05;;;5.70;99.90;;;;;;4961894;28;20042;-89
2022/03/28 01:06:06;;;;;;;230.75;21.52;;;5.70;99.90;;;;;;4948023;28;20043;-90
2022/03/28 01:08:38;;;;;;;137.82;19.48;;;5.70;99.90;;;;;;4942631;28;20145;-88
2022/03/28 01:11:29;;;;;;;128.37;21.87;;;5.70;99.90;;;;;;4945808;28;20097;-89
2022/03/28 01:13:55;;;;;;;162.10;19.38;;;5.70;99.90;;;;;;4951176;28;20140;-90
2022/03/28 01:16:24;;;;;;;122.65;18.45;;;5.70;99.90;;;;;;4945470;28;20038;-89
2022/03/28 01:18:50;;;;;;;153.60;20.90;;;5.70;99.90;;;;;;4932873;28;20126;-87
2022/03/28 01:21:22;;;;;;;123.72;19.13;;;5.70;99.90;;;;;;4919035;28;20516;-89
2022/03/28 01:23:56;;;;;;;126.45;19.13;;;5.70;99.90;;;;;;4938136;28;20054;-90
2022/03/28 01:26:37;;;;;;;70.10;19.30;;;5.70;99.90;;;;;;4938175;28;21215;-89
2022/03/28 01:29:18;;;;;;;177.52;21.40;;;5.70;99.90;;;;;;4964785;28;21035;-89
2022/03/28 01:32:08;;;;;;;;;;;;;;;;;;;;;
2022/03/28 01:34:46;;;;;;;135.82;20.55;;;5.80;99.90;;;;;;4960311;28;20046;-88
2022/03/28 01:37:31;;;;;;;123.82;17.25;;;5.70;99.90;;;;;;4947535;28;20739;-89
2022/03/28 01:39:57;;;;;;;102.50;17.90;;;5.80;99.90;;;;;;4950019;28;20038;-88
2022/03/28 01:42:26;;;;;;;87.10;16.58;;;5.70;99.90;;;;;;4944306;28;20089;-89
2022/03/28 01:44:57;;;;;;;145.00;19.25;;;5.70;99.90;;;;;;4936258;28;20120;-90
2022/03/28 01:47:40;;;;;;;90.72;19.25;;;5.70;99.90;;;;;;4949463;28;20082;-89
2022/03/28 01:50:11;;;;;;;234.63;23.17;;;5.70;99.90;;;;;;4946038;28;20186;-90
2022/03/28 01:52:37;;;;;;;201.30;23.10;;;5.70;99.90;;;;;;4937437;28;20062;-89
2022/03/28 01:55:05;;;;;;;88.68;19.92;;;5.70;99.90;;;;;;4930373;28;20810;-90
2022/03/28 01:57:32;;;;;;;116.85;21.45;;;5.70;99.90;;;;;;4935151;28;20031;-90
2022/03/28 02:00:13;;;;;;;89.93;20.05;;;5.70;99.90;;;;;;4936043;28;20046;-90
2022/03/28 02:02:39;;;;;;;85.72;21.20;;;5.70;99.90;;;;;;4938591;28;20049;-89
2022/03/28 02:05:12;;;;;;;220.45;26.83;;;5.80;99.90;;;;;;4952663;28;20038;-89
2022/03/28 02:07:44;;;;;;;82.80;22.10;;;5.80;99.90;;;;;;4948993;28;20042;-89
2022/03/28 02:10:13;;;;;;;122.85;21.35;;;5.80;99.90;;;;;;4949934;28;20053;-89
2022/03/28 02:12:43;;;;;;;176.30;23.23;;;5.80;99.90;;;;;;4963963;28;20482;-89
2022/03/28 02:15:10;;;;;;;128.00;20.40;;;5.80;99.90;;;;;;4942629;28;20113;-89
2022/03/28 02:17:42;;;;;;;94.78;20.15;;;5.80;99.90;;;;;;4944287;28;20046;-89
2022/03/28 02:20:30;;;;;;;205.75;21.80;;;5.80;99.90;;;;;;4938285;28;20118;-89
2022/03/28 02:23:12;;;;;;;;;;;;;;;;;;;;;
2022/03/28 02:25:42;;;;;;;144.05;21.58;;;5.70;99.90;;;;;;4949844;28;20039;-89
2022/03/28 02:28:08;;;;;;;148.15;22.27;;;5.80;99.90;;;;;;4937221;28;20528;-89
2022/03/28 02:30:34;;;;;;;126.78;21.13;;;5.70;99.90;;;;;;4951568;28;20046;-89
2022/03/28 02:33:00;;;;;;;202.98;22.17;;;5.80;99.90;;;;;;4936536;28;20114;-89
2022/03/28 02:35:26;;;;;;;154.88;25.73;;;5.80;99.90;;;;;;4934854;28;20055;-90
2022/03/28 02:37:52;;;;;;;158.82;23.65;;;5.80;99.90;;;;;;4937053;28;20121;-90
2022/03/28 02:40:31;;;;;;;147.00;22.80;;;5.80;99.90;;;;;;4949248;28;20034;-91
2022/03/28 02:43:03;;;;;;;158.85;24.17;;;5.80;99.90;;;;;;4938117;28;20062;-89
2022/03/28 02:45:43;;;;;;;132.38;22.25;;;5.80;99.90;;;;;;4938563;28;20713;-88
2022/03/28 02:48:09;;;;;;;115.65;22.85;;;5.80;99.90;;;;;;4961621;28;20474;-90
2022/03/28 02:50:35;;;;;;;108.80;21.70;;;5.90;99.90;;;;;;4931977;28;20106;-90
2022/03/28 02:53:01;;;;;;;118.38;22.75;;;5.80;99.90;;;;;;4946715;28;20049;-89
2022/03/28 02:55:42;;;;;;;149.85;24.33;;;5.80;99.90;;;;;;4950918;28;20097;-90
2022/03/28 02:58:22;;;;;;;92.80;24.88;;;5.80;99.90;;;;;;4946741;28;20503;-88
2022/03/28 03:00:48;;;;;;;126.18;23.30;;;5.80;99.90;;;;;;4952650;28;20183;-91
2022/03/28 03:03:28;;;;;;;133.05;26.08;;;5.80;99.90;;;;;;4925696;28;20046;-89
2022/03/28 03:05:55;;;;;;;84.13;24.55;;;5.80;99.90;;;;;;4950872;28;20158;-90
2022/03/28 03:08:27;;;;;;;111.60;25.13;;;5.80;99.90;;;;;;4950785;28;20076;-90
2022/03/28 03:10:54;;;;;;;;;;;5.80;99.90;;;;;;4937335;28;20043;-89
2022/03/28 03:13:29;;;;;;;119.88;24.73;;;5.80;99.90;;;;;;4932176;28;19924;-89
2022/03/28 03:15:55;;;;;;;124.47;27.48;;;5.80;99.90;;;;;;4952784;28;20110;-89
2022/03/28 03:18:21;;;;;;;99.07;25.02;;;5.80;99.90;;;;;;4914580;28;20042;-89
2022/03/28 03:20:48;;;;;;;88.25;25.35;;;5.80;99.90;;;;;;4918396;28;20106;-90
2022/03/28 03:23:22;;;;;;;92.95;26.70;;;5.80;99.90;;;;;;4947544;28;20424;-89
2022/03/28 03:25:49;;;;;;;102.78;25.80;;;5.80;99.90;;;;;;4932158;28;20081;-90
2022/03/28 03:28:16;;;;;;;134.30;28.38;;;5.80;99.90;;;;;;4950824;28;20038;-89
2022/03/28 03:30:50;;;;;;;100.15;28.00;;;5.80;99.90;;;;;;4944987;28;20121;-88
2022/03/28 03:34:26;;;;;;;;;;;;;;;;;;;;;
2022/03/28 03:36:55;;;;;;;103.28;29.23;;;5.80;99.90;;;;;;4967038;28;20045;-89
2022/03/28 03:39:22;;;;;;;119.57;28.27;;;5.80;99.90;;;;;;4946034;28;20066;-89
2022/03/28 03:41:49;;;;;;;105.90;30.27;;;5.80;99.90;;;;;;4951393;28;20049;-90
2022/03/28 03:44:15;;;;;;;101.13;29.67;;;5.80;99.90;;;;;;4944092;28;20803;-89
2022/03/28 03:46:41;;;;;;;78.10;28.08;;;5.80;99.90;;;;;;4956722;28;20121;-90
2022/03/28 03:49:08;;;;;;;107.05;29.58;;;5.80;99.90;;;;;;4946000;28;20566;-89
2022/03/28 03:51:35;;;;;;;99.55;28.60;;;5.80;99.90;;;;;;4935623;28;20062;-90
2022/03/28 03:54:01;;;;;;;105.25;29.98;;;5.80;99.90;;;;;;4946498;28;20041;-89
2022/03/28 03:56:30;;;;;;;108.15;31.15;;;5.80;99.90;;;;;;4950738;28;20034;-89
2022/03/28 03:59:12;;;;;;;87.72;27.58;;;5.80;99.90;;;;;;4948868;28;20030;-89
2022/03/28 04:01:39;;;;;;;96.50;27.60;;;5.80;99.90;;;;;;4949642;28;20111;-89
2022/03/28 04:04:06;;;;;;;86.90;27.55;;;5.80;99.90;;;;;;4940668;28;20034;-88
2022/03/28 04:06:35;;;;;;;76.55;26.33;;;5.80;99.90;;;;;;4931135;28;20065;-89
2022/03/28 04:09:07;;;;;;;98.18;26.55;;;5.80;99.90;;;;;;4933672;28;20034;-89
2022/03/28 04:11:36;;;;;;;;;;;5.70;99.90;;;;;;4935816;28;20113;-89
2022/03/28 04:14:05;;;;;;;75.22;25.02;;;5.70;99.90;;;;;;4932540;28;19949;-88
2022/03/28 04:16:37;;;;;;;85.90;27.00;;;5.70;99.90;;;;;;4931217;28;20049;-89
2022/03/28 04:23:10;;;;;;;67.63;24.55;;;5.60;99.90;;;;;;4895423;28;20505;-90
2022/03/28 04:25:41;;;;;;;71.45;26.90;;;5.70;99.90;;;;;;4960720;28;20070;-89
2022/03/28 04:28:10;;;;;;;59.00;24.55;;;5.60;99.90;;;;;;4949845;28;20061;-89
2022/03/28 04:30:39;;;;;;;64.07;24.80;;;5.60;99.90;;;;;;4946889;28;20055;-87
2022/03/28 04:37:31;;;;;;;;;;;;;;;;;;;;;
2022/03/28 04:40:21;;;;;;;62.42;25.80;;;5.50;99.90;;;;;;4904001;28;20057;-89
2022/03/28 04:43:00;;;;;;;69.90;27.33;;;5.50;99.90;;;;;;4949458;28;20042;-88
2022/03/28 04:45:41;;;;;;;68.45;27.02;;;5.50;99.90;;;;;;4945158;28;20035;-88
2022/03/28 04:48:10;;;;;;;61.55;26.15;;;5.50;99.90;;;;;;4936614;28;20078;-90
2022/03/28 04:50:36;;;;;;;65.00;27.00;;;5.50;99.90;;;;;;4944823;28;20085;-88
2022/03/28 04:53:17;;;;;;;63.47;27.73;;;5.50;99.90;;;;;;4948957;28;20049;-89
2022/03/28 04:55:44;;;;;;;67.07;27.85;;;5.50;99.90;;;;;;4943621;28;20071;-88
2022/03/28 04:58:10;;;;;;;64.03;28.00;;;5.50;99.90;;;;;;4943649;28;20578;-87
2022/03/28 05:00:46;;;;;;;63.03;27.10;;;5.60;99.90;;;;;;4928874;28;20054;-87
2022/03/28 05:03:11;;;;;;;69.75;28.98;;;5.50;99.90;;;;;;4945421;28;20046;-89
2022/03/28 05:05:49;;;;;;;64.70;26.00;;;5.50;99.90;;;;;;4945143;28;20053;-90
2022/03/28 05:08:41;;;;;;;63.15;26.95;;;5.50;99.90;;;;;;4944961;28;20214;-87
2022/03/28 05:11:24;;;;;;;60.17;27.05;;;5.50;99.90;;;;;;4943527;28;20113;-89
2022/03/28 05:14:18;;;;;;;66.30;26.50;;;5.50;99.90;;;;;;4943413;28;20065;-89
2022/03/28 05:16:49;;;;;;;68.15;26.85;;;5.50;99.90;;;;;;4940812;28;20052;-90
2022/03/28 05:19:33;;;;;;;59.45;25.70;;;5.50;99.90;;;;;;4943521;28;20649;-87
2022/03/28 05:22:20;;;;;;;65.10;25.55;;;5.40;99.90;;;;;;4927669;28;20039;-89
2022/03/28 05:25:55;;;;;;;65.65;26.70;;;5.50;99.90;;;;;;4930112;28;20054;-89
2022/03/28 05:29:15;;;;;;;75.60;26.73;;;5.40;99.90;;;;;;4949723;28;20042;-91
2022/03/28 05:32:45;;;;;;;;;;;;;;;;;;;;;
2022/03/28 05:34:59;;;;;;;72.88;29.25;;;5.50;99.90;;;;;;4952402;28;20744;-87
2022/03/28 05:52:46;;;;;;;67.90;22.95;;;5.60;99.90;;;;;;4802060;29;20106;-88
2022/03/28 05:55:14;;;;;;;59.67;20.40;;;5.60;99.90;;;;;;4894302;29;20298;-90
2022/03/28 05:57:41;;;;;;;63.65;21.80;;;5.50;99.90;;;;;;4878266;29;20036;-90
2022/03/28 06:00:09;;;;;;;68.95;20.38;;;5.50;99.90;;;;;;4890567;28;20038;-89
2022/03/28 06:02:39;;;;;;;56.80;19.70;;;5.50;99.90;;;;;;4937156;28;20133;-88
2022/03/28 06:05:06;;;;;;;69.03;20.00;;;5.50;99.90;;;;;;4939424;28;20495;-89
2022/03/28 06:07:32;;;;;;;50.13;17.83;;;5.40;99.90;;;;;;4952346;28;20049;-90
2022/03/28 06:09:58;;;;;;;55.60;17.80;;;5.40;99.90;;;;;;4939565;28;20042;-89
2022/03/28 06:12:24;;;;;;;50.72;17.42;;;5.40;99.90;;;;;;4935928;28;20093;-89
2022/03/28 06:14:50;;;;;;;53.78;17.63;;;5.40;99.90;;;;;;4921489;28;20045;-90
2022/03/28 06:17:55;;;;;;;52.75;15.70;;;5.40;99.90;;;;;;4935391;28;20113;-88
2022/03/28 06:20:24;;;;;;;44.70;15.05;;;5.30;99.90;;;;;;4952631;28;20459;-90
2022/03/28 06:22:52;;;;;;;42.55;13.80;;;5.40;99.90;;;;;;4951952;28;20045;-87
2022/03/28 06:25:29;;;;;;;31.85;11.25;;;5.30;99.90;;;;;;4951779;28;20042;-88
2022/03/28 06:27:55;;;;;;;31.20;12.05;;;5.30;99.90;;;;;;4951752;28;20038;-88
2022/03/28 06:30:44;;;;;;;33.35;12.88;;;5.30;99.90;;;;;;4966144;28;20034;-88
2022/03/28 06:33:52;;;;;;;31.90;12.32;;;5.30;99.90;;;;;;4952314;28;20046;-88
2022/03/28 06:36:29;;;;;;;32.88;12.45;;;5.30;99.90;;;;;;4944589;28;20110;-88
2022/03/28 06:38:57;;;;;;;38.65;12.20;;;5.30;99.90;;;;;;4960392;28;20104;-88
2022/03/28 06:41:39;;;;;;;;;;;;;;;;;;;;;
2022/03/28 06:44:08;;;;;;;43.97;13.98;;;5.30;99.90;;;;;;4966346;28;20042;-89
2022/03/28 06:46:34;;;;;;;41.58;13.93;;;5.30;99.90;;;;;;4953796;28;20038;-88
2022/03/28 06:49:00;;;;;;;39.30;13.38;;;5.40;99.90;;;;;;4952176;28;20060;-89
2022/03/28 06:51:28;;;;;;;64.63;12.75;;;5.30;99.90;;;;;;4936986;28;20054;-90
2022/03/28 06:53:54;;;;;;;27.73;10.52;;;5.30;99.90;;;;;;4938518;28;20225;-88
2022/03/28 06:56:20;;;;;;;18.02;8.25;;;5.30;99.90;;;;;;4946910;28;20089;-91
2022/03/28 06:58:46;;;;;;;21.48;9.10;;;5.20;99.90;;;;;;4933370;28;20732;-90
2022/03/28 07:01:27;;;;;;;20.08;8.75;;;5.20;99.90;;;;;;4939886;28;20039;-89
2022/03/28 07:03:55;;;;;;;35.23;9.10;;;5.20;99.90;;;;;;4939063;28;20809;-89
2022/03/28 07:06:21;;;;;;;30.23;8.68;;;5.30;99.90;;;;;;4954841;28;20334;-89
2022/03/28 07:08:49;;;;;;;21.13;8.10;;;5.20;99.90;;;;;;4952867;28;20043;-88
2022/03/28 07:11:15;;;;;;;22.73;8.18;;;5.20;99.90;;;;;;4938931;28;20058;-87
2022/03/28 07:13:41;;;;;;;18.42;6.20;;;5.30;99.90;;;;;;4947599;28;20038;-90
2022/03/28 07:16:12;;;;;;;20.42;7.07;;;5.30;99.90;;;;;;4921230;28;20414;-88
2022/03/28 07:19:00;;;;;;;17.27;6.28;;;5.30;99.90;;;;;;4949112;28;20687;-88
2022/03/28 07:21:27;;;;;;;18.02;6.95;;;5.30;99.90;;;;;;4939447;28;20038;-87
2022/03/28 07:23:56;;;;;;;17.15;6.10;;;5.30;99.90;;;;;;4956193;28;20403;-88
2022/03/28 07:26:27;;;;;;;17.67;6.93;;;5.30;99.90;;;;;;4948069;28;20039;-88
2022/03/28 07:28:58;;;;;;;17.27;6.80;;;5.40;99.90;;;;;;4954790;28;20074;-89
2022/03/28 08:06:51;;;;;;;21.15;8.88;;;5.80;99.90;;;;;;5008657;28;20046;-88
2022/03/28 08:09:20;;;;;;;20.10;9.35;;;5.80;99.90;;;;;;4936653;28;20030;-88
2022/03/28 08:11:46;;;;;;;20.23;8.65;;;5.80;99.90;;;;;;4937192;28;20073;-88
2022/03/28 08:14:12;;;;;;;19.02;9.00;;;5.90;99.90;;;;;;4960062;28;20069;-87
2022/03/28 08:16:41;;;;;;;21.75;8.15;;;6.00;99.90;;;;;;4942026;28;20533;-88
2022/03/28 08:19:17;;;;;;;21.38;9.45;;;6.00;99.90;;;;;;4956594;28;20038;-87
2022/03/28 08:21:56;;;;;;;20.20;8.70;;;6.10;99.90;;;;;;4959178;28;20065;-87
2022/03/28 08:24:33;;;;;;;17.77;8.90;;;6.20;99.90;;;;;;4956576;28;20046;-89
2022/03/28 08:27:02;;;;;;;19.52;9.23;;;6.20;99.90;;;;;;4936963;28;20050;-88
2022/03/28 08:29:32;;;;;;;21.75;9.15;;;;;;;;;;4955266;28;20034;-88
2022/03/28 08:32:02;;;;;;;18.13;8.88;;;;;;;;;;4936767;28;20074;-88
2022/03/28 08:34:29;;;;;;;16.20;9.07;;;;;;;;;;4955036;28;20038;-88
2022/03/28 08:37:00;;;;;;;15.93;8.93;;;;;;;;;;4975667;28;20450;-88
2022/03/28 08:39:30;;;;;;;16.33;8.83;;;;;;;;;;4940459;28;20093;-88
2022/03/28 08:41:57;;;;;;;17.75;10.15;;;;;;;;;;4938928;28;20097;-88
2022/03/28 08:44:27;;;;;;;15.35;9.35;;;;;;;;;;4959071;28;20053;-88
2022/03/28 08:46:58;;;;;;;25.25;10.48;;;;;;;;;;4956898;28;20038;-88
2022/03/28 08:49:27;;;;;;;18.88;10.63;;;;;;;;;;4953953;28;20046;-87
2022/03/28 08:52:01;;;;;;;18.73;10.05;;;;;;;;;;4954002;28;20038;-88
2022/03/28 08:54:27;;;;;;;19.60;9.90;;;;;;;;;;4952088;28;20030;-88
2022/03/28 08:56:59;;;;;;;24.17;11.43;;;;;;;;;;4938541;28;20286;-88
2022/03/28 08:59:27;;;;;;;21.05;11.02;;;;;;;;;;4955395;28;20491;-88
2022/03/28 09:02:01;;;;;;;20.20;10.55;;;;;;;;;;4951972;28;20771;-88
2022/03/28 09:04:30;;;;;;;20.63;10.65;;;;;;;;;;4944811;28;20074;-87
2022/03/28 09:06:57;;;;;;;23.65;12.02;;;;;;;;;;4951048;28;20126;-88
2022/03/28 09:09:29;;;;;;;24.17;11.38;;;;;;;;;;4953007;28;20043;-88
2022/03/28 09:11:58;;;;;;;18.23;10.55;;;;;;;;;;4950686;28;20042;-87
2022/03/28 09:14:27;;;;;;;21.48;10.50;;;;;;;;;;4950269;28;20054;-87
2022/03/28 09:17:00;;;;;;;23.38;11.32;;;;;;;;;;4951195;28;20092;-88
2022/03/28 09:19:41;;;;;;;19.33;10.77;;;;;;;;;;4957987;28;20030;-88
2022/03/28 09:22:19;;;;;;;17.58;9.38;;;;;;;;;;4970125;28;20070;-88
2022/03/28 09:24:45;;;;;;;18.63;10.30;;;;;;;;;;4971874;28;20042;-87
2022/03/28 09:27:16;;;;;;;16.40;9.23;;;;;;;;;;4956919;28;20101;-87
2022/03/28 09:29:53;;;;;;;16.80;9.82;;;;;;;;;;4955114;28;20041;-87
2022/03/28 09:32:23;;;;;;;20.95;10.93;;;;;;;;;;4961471;28;20034;-88
2022/03/28 09:35:03;;;;;;;19.77;10.95;;;;;;;;;;4966051;28;20118;-87
2022/03/28 09:37:30;;;;;;;19.55;10.50;;;;;;;;;;4951279;28;20053;-86
2022/03/28 09:39:57;;;;;;;18.52;10.13;;;;;;;;;;4953326;28;20030;-86
2022/03/28 09:42:23;;;;;;;18.52;11.07;;;;;;;;;;4958232;28;20046;-86
2022/03/28 09:44:53;;;;;;;23.23;11.73;;;;;;;;;;4937523;28;20054;-88
2022/03/28 09:47:26;;;;;;;20.65;11.82;;;;;;;;;;4949190;28;20043;-87
2022/03/28 09:49:53;;;;;;;19.98;10.82;;;;;;;;;;4950791;28;20113;-87
2022/03/28 09:52:22;;;;;;;19.48;11.23;;;;;;;;;;4979652;28;20088;-87
2022/03/28 09:54:50;;;;;;;19.33;10.73;;;;;;;;;;4950473;28;20120;-88
2022/03/28 09:57:21;;;;;;;22.38;11.90;;;;;;;;;;4950254;28;20031;-88
2022/03/28 09:59:48;;;;;;;21.35;10.95;;;;;;;;;;4966915;28;20041;-88
2022/03/28 10:02:15;;;;;;;20.25;11.30;;;;;;;;;;4952816;28;20047;-88
2022/03/28 10:04:44;;;;;;;16.73;10.30;;;;;;;;;;4957975;28;20097;-88
2022/03/28 10:07:10;;;;;;;19.10;10.90;;;;;;;;;;4948323;28;20042;-87
2022/03/28 10:09:37;;;;;;;20.13;11.20;;;;;;;;;;4953155;28;20046;-87
2022/03/28 10:12:04;;;;;;;25.58;12.45;;;;;;;;;;4936185;28;20047;-88
2022/03/28 10:14:31;;;;;;;22.00;12.68;;;;;;;;;;4934161;28;20042;-87
2022/03/28 10:16:57;;;;;;;21.77;12.13;;;;;;;;;;4942848;28;20034;-87
2022/03/28 10:19:23;;;;;;;24.25;13.23;;;;;;;;;;4950481;28;20050;-87
2022/03/28 10:21:49;;;;;;;21.40;12.48;;;;;;;;;;4952500;28;20077;-89
2022/03/28 10:24:22;;;;;;;27.63;12.82;;;;;;;;;;4955030;28;20499;-89
2022/03/28 10:26:52;;;;;;;23.85;12.95;;;;;;;;;;4953167;28;20034;-86
2022/03/28 10:29:21;;;;;;;26.80;14.27;;;;;;;;;;4953871;28;20430;-88
2022/03/28 10:31:51;;;;;;;23.52;13.23;;;;;;;;;;4956244;28;20081;-87
2022/03/28 10:34:37;;;;;;;25.27;14.25;;;;;;;;;;4952430;28;20041;-88
2022/03/28 10:37:26;;;;;;;21.70;12.73;;;;;;;;;;4955460;28;20038;-88
2022/03/28 10:40:15;;;;;;;22.73;12.77;;;;;;;;;;4940325;28;20507;-88
2022/03/28 10:42:55;;;;;;;19.25;12.30;;;;;;;;;;4951412;28;20042;-88
2022/03/28 10:45:21;;;;;;;21.80;13.40;;;;;;;;;;4957935;28;20038;-89
2022/03/28 10:47:52;;;;;;;22.40;12.75;;;;;;;;;;4932467;28;20038;-89
2022/03/28 10:50:20;;;;;;;26.55;12.93;;;;;;;;;;4953640;28;20097;-88
2022/03/28 10:53:16;;;;;;;22.45;13.70;;;;;;;;;;4955878;28;20667;-90
2022/03/28 10:55:49;;;;;;;22.50;13.52;;;;;;;;;;4936165;28;20050;-89
2022/03/28 10:58:15;;;;;;;;;;;;;;;;;;4953218;28;20038;-89
2022/03/28 11:01:05;;;;;;;23.05;12.60;;;;;;;;;;4957280;28;19925;-90
2022/03/28 11:03:38;;;;;;;23.55;13.68;;;;;;;;;;4947158;28;20060;-89
2022/03/28 11:06:05;;;;;;;25.23;14.52;;;;;;;;;;4955008;28;20049;-88
2022/03/28 11:08:38;;;;;;;22.15;13.60;;;;;;;;;;4937512;28;20038;-89
2022/03/28 11:11:14;;;;;;;23.45;13.05;;;;;;;;;;4942991;28;20050;-88
2022/03/28 11:13:43;;;;;;;25.60;14.98;;;;;;;;;;4957634;28;20042;-89
2022/03/28 11:16:19;;;;;;;22.67;13.20;;;;;;;;;;4940493;28;20061;-89
2022/03/28 11:19:05;;;;;;;26.30;14.70;;;;;;;;;;4946743;28;20041;-89
2022/03/28 11:21:31;;;;;;;24.67;15.52;;;;;;;;;;4958402;28;20491;-89
2022/03/28 11:24:10;;;;;;;23.15;14.23;;;;;;;;;;4947282;28;20509;-89
2022/03/28 11:26:38;;;;;;;24.30;14.43;;;;;;;;;;4946920;28;20596;-89
2022/03/28 11:29:07;;;;;;;19.05;13.10;;;;;;;;;;4955998;28;20046;-88
2022/03/28 11:31:35;;;;;;;23.23;14.65;;;8.80;99.90;;;;;;4933378;28;20782;-89
2022/03/28 11:34:09;;;;;;;23.92;14.18;;;;;;;;;;4957265;28;20030;-89
2022/03/28 11:36:37;;;;;;;23.67;14.82;;;;;;;;;;4959403;28;20049;-90
2022/03/28 11:39:11;;;;;;;22.60;14.95;;;;;;;;;;4946724;28;20180;-89
2022/03/28 11:41:40;;;;;;;24.63;14.80;;;;;;;;;;4963049;28;20042;-89
2022/03/28 11:44:07;;;;;;;21.15;12.98;;;;;;;;;;4954642;28;20045;-88
2022/03/28 11:46:33;;;;;;;21.77;14.65;;;;;;;;;;4935911;28;20043;-88
2022/03/28 11:49:09;;;;;;;21.48;13.65;;;;;;;;;;4937178;28;20055;-89
2022/03/28 11:51:40;;;;;;;22.10;14.52;;;;;;;;;;4949539;28;20042;-89
2022/03/28 11:54:08;;;;;;;24.20;14.27;;;;;;;;;;4954363;28;20403;-89
2022/03/28 11:58:14;;;;;;;20.67;14.13;;;;;;;;;;4973397;28;20049;-89
2022/03/28 11:59:25;;;;;;;22.10;13.52;;;9.50;99.90;;;;;;4968356;28;20200;-89
2022/03/28 12:02:02;;;;;;;19.23;13.00;;;10.80;99.90;;;;;;4953901;28;20034;-90
2022/03/28 12:04:29;;;;;;;21.60;13.60;;;10.80;99.90;;;;;;4954634;28;20054;-88
2022/03/28 12:06:56;;;;;;;18.63;12.95;;;10.80;99.90;;;;;;4958255;28;20042;-88
2022/03/28 12:09:22;;;;;;;20.65;12.95;;;10.70;99.90;;;;;;4961282;28;20042;-88
2022/03/28 12:11:53;;;;;;;21.63;13.25;;;10.80;99.90;;;;;;4934875;28;20499;-88
2022/03/28 12:14:20;;;;;;;20.98;13.10;;;10.90;99.90;;;;;;4940464;28;20090;-88
2022/03/28 12:16:49;;;;;;;17.42;12.80;;;11.00;99.90;;;;;;4938310;28;20038;-90
2022/03/28 12:19:24;;;;;;;18.95;12.98;;;11.10;99.90;;;;;;4975265;28;20030;-88
2022/03/28 12:21:52;;;;;;;17.77;12.75;;;11.10;99.90;;;;;;4955719;28;20647;-90
2022/03/28 12:24:20;;;;;;;17.60;12.93;;;11.00;99.90;;;;;;4943453;28;20045;-88
2022/03/28 12:26:48;;;;;;;17.20;13.07;;;11.20;99.90;;;;;;4957894;28;20069;-89
2022/03/28 12:29:15;;;;;;;20.00;14.00;;;11.40;99.90;;;;;;4950578;28;20039;-88
2022/03/28 12:31:50;;;;;;;16.70;12.82;;;11.70;99.90;;;;;;4935157;28;20082;-88
2022/03/28 12:34:20;;;;;;;17.30;12.98;;;11.90;99.90;;;;;;4959184;28;20038;-87
2022/03/28 12:36:46;;;;;;;21.30;13.48;;;11.90;99.90;;;;;;4953796;28;20039;-88
2022/03/28 12:39:15;;;;;;;19.23;13.23;;;11.90;99.90;;;;;;4946499;28;20657;-87
2022/03/28 12:41:44;;;;;;;16.92;12.82;;;12.00;99.90;;;;;;4954799;28;20049;-89
2022/03/28 12:44:18;;;;;;;16.58;12.20;;;;;;;;;;4957165;28;20056;-90
2022/03/28 12:46:44;;;;;;;16.77;13.55;;;12.10;99.90;;;;;;4969263;28;20348;-89
2022/03/28 12:49:16;;;;;;;19.42;13.02;;;12.30;99.90;;;;;;4939717;28;20126;-87
2022/03/28 12:51:43;;;;;;;19.35;13.10;;;12.40;99.90;;;;;;4952243;28;20042;-91
2022/03/28 12:54:11;;;;;;;17.23;12.25;;;12.50;99.90;;;;;;4957647;28;20034;-91
2022/03/28 12:56:55;;;;;;;18.50;12.35;;;12.50;99.90;;;;;;4963687;28;20038;-88
2022/03/28 12:59:20;;;;;;;18.55;12.63;;;12.70;99.90;;;;;;4968025;28;20117;-88
2022/03/28 13:01:47;;;;;;;19.83;13.32;;;12.70;99.90;;;;;;4958137;28;20196;-89
2022/03/28 13:04:23;;;;;;;18.52;13.45;;;12.70;99.90;;;;;;4956477;28;20490;-88
2022/03/28 13:07:00;;;;;;;16.60;12.77;;;12.50;99.90;;;;;;4956971;28;20045;-87
2022/03/28 13:09:35;;;;;;;20.13;13.07;;;12.50;99.90;;;;;;4943533;28;20502;-89
2022/03/28 13:12:11;;;;;;;17.33;13.40;;;12.60;99.90;;;;;;4956951;28;20419;-89
2022/03/28 13:14:39;;;;;;;18.65;12.93;;;12.80;99.90;;;;;;4969337;28;20050;-89
2022/03/28 13:17:09;;;;;;;20.42;14.20;;;13.10;99.90;;;;;;4942223;28;20101;-87
2022/03/28 13:19:36;;;;;;;20.33;13.88;;;13.30;99.90;;;;;;4953539;28;20069;-88
2022/03/28 13:22:04;;;;;;;18.48;13.63;;;13.50;99.90;;;;;;4937954;28;20049;-91
2022/03/28 13:24:31;;;;;;;16.88;12.95;;;13.80;99.90;;;;;;4940199;28;20041;-91
2022/03/28 13:30:15;;;;;;;17.45;12.70;;;;;;;;;;4971018;28;20042;-90
2022/03/28 13:32:42;;;;;;;17.58;13.00;;;;;;;;;;4972681;28;20488;-87
2022/03/28 13:35:08;;;;;;;19.10;12.65;;;14.40;99.90;;;;;;4941756;28;20033;-87
2022/03/28 13:37:33;;;;;;;17.80;13.45;;;16.80;99.90;;;;;;4952008;28;20099;-88
2022/03/28 13:39:59;;;;;;;20.05;14.20;;;16.80;99.90;;;;;;4912838;28;20038;-87
2022/03/28 13:42:26;;;;;;;19.85;14.65;;;;;;;;;;4920118;28;20057;-88
2022/03/28 13:44:52;;;;;;;21.83;14.23;;;16.30;99.90;;;;;;4934760;28;20093;-86
2022/03/28 13:47:17;;;;;;;21.15;13.50;;;16.10;99.90;;;;;;4930115;28;20034;-88
2022/03/28 13:49:47;;;;;;;18.95;13.55;;;;;;;;;;4928931;28;20308;-89
2022/03/28 13:52:13;;;;;;;16.90;12.80;;;15.60;99.90;;;;;;4933329;28;20053;-86
2022/03/28 13:54:39;;;;;;;17.70;13.55;;;15.30;99.90;;;;;;4915144;28;20054;-87
2022/03/28 13:57:04;;;;;;;20.58;14.02;;;15.40;99.90;;;;;;4937899;28;20038;-87
2022/03/28 13:59:30;;;;;;;18.77;13.07;;;15.40;99.90;;;;;;4919375;28;20062;-88
2022/03/28 14:01:56;;;;;;;16.17;13.32;;;15.70;99.90;;;;;;4950136;28;20069;-86
2022/03/28 14:04:22;;;;;;;16.70;13.10;;;15.80;99.90;;;;;;4925137;28;20050;-88
2022/03/28 14:06:48;;;;;;;17.58;13.50;;;15.80;99.90;;;;;;4944336;28;20463;-87
2022/03/28 14:09:17;;;;;;;20.58;14.45;;;15.80;99.70;;;;;;4928771;28;20061;-87
2022/03/28 14:11:43;;;;;;;17.92;13.55;;;16.00;99.50;;;;;;4921652;28;20038;-88
2022/03/28 14:14:09;;;;;;;17.60;13.27;;;16.10;97.10;;;;;;4922315;28;20054;-87
2022/03/28 14:16:34;;;;;;;18.27;13.75;;;16.10;98.80;;;;;;4967603;28;20078;-87
2022/03/28 14:19:00;;;;;;;16.17;13.73;;;16.20;96.50;;;;;;4942552;28;20193;-86
2022/03/28 14:21:26;;;;;;;24.80;14.02;;;16.20;95.90;;;;;;4940195;28;20464;-86
2022/03/28 14:23:52;;;;;;;18.40;13.80;;;16.20;94.50;;;;;;4938313;28;20652;-87
2022/03/28 14:26:20;;;;;;;26.27;13.30;;;16.20;94.20;;;;;;4941255;28;20046;-87
2022/03/28 14:28:46;;;;;;;20.02;14.07;;;;;;;;;;4928201;28;20092;-87
2022/03/28 14:31:12;;;;;;;16.35;13.32;;;16.10;94.50;;;;;;4956573;28;20407;-88
2022/03/28 14:33:38;;;;;;;16.10;13.88;;;16.70;91.70;;;;;;4937649;28;20065;-89
2022/03/28 14:36:05;;;;;;;16.90;14.25;;;16.60;90.60;;;;;;4942848;28;20050;-88